WRC726 LYTV-UKBB
Flight info
| Callsign | WRC726 |
|---|---|
| Flight time | 1h 44m |
| Altitude | 33000 |
| Route | NIK DCT YUYUH DCT ANASA DCT VILIS/K0833F330 DCT LAVDA DCT SULUM |
| Aircraft | A321/M-SDE3FGHIRWY/LB1 |
Departure
| Time | 2026-04-29 11:24 |
|---|---|
| Airport | Tivat Airport (LYTV) |
Arrival
| Time | 2026-04-29 13:09 |
|---|---|
| Airport | Boryspil International Airport (UKBB) |
| Time | Latitude | Longitude | Altitude | Speed | Heading |
|---|---|---|---|---|---|
| 2026-04-29 10:54 | 42.41308 | 18.71593 | 18 ft | 0 kts | 160° |
| 2026-04-29 11:15 | 42.41294 | 18.71595 | 19 ft | 6 kts | 178° |
| 2026-04-29 11:15 | 42.41252 | 18.71596 | 19 ft | 4 kts | 169° |
| 2026-04-29 11:16 | 42.41232 | 18.71612 | 19 ft | 5 kts | 148° |
| 2026-04-29 11:16 | 42.41190 | 18.71660 | 21 ft | 10 kts | 139° |
| 2026-04-29 11:16 | 42.41141 | 18.71718 | 21 ft | 9 kts | 139° |
| 2026-04-29 11:16 | 42.41096 | 18.71772 | 20 ft | 8 kts | 139° |
| 2026-04-29 11:17 | 42.41057 | 18.71818 | 21 ft | 7 kts | 139° |
| 2026-04-29 11:17 | 42.41025 | 18.71856 | 21 ft | 5 kts | 139° |
| 2026-04-29 11:17 | 42.41001 | 18.71856 | 21 ft | 2 kts | 213° |
| 2026-04-29 11:17 | 42.40998 | 18.71851 | 21 ft | 0 kts | 226° |
| 2026-04-29 11:20 | 42.40987 | 18.71835 | 21 ft | 7 kts | 226° |
| 2026-04-29 11:20 | 42.40920 | 18.71805 | 21 ft | 16 kts | 164° |
| 2026-04-29 11:21 | 42.40805 | 18.71929 | 20 ft | 27 kts | 139° |
| 2026-04-29 11:21 | 42.40640 | 18.72125 | 18 ft | 37 kts | 139° |
| 2026-04-29 11:21 | 42.40430 | 18.72374 | 20 ft | 44 kts | 139° |
| 2026-04-29 11:21 | 42.40202 | 18.72644 | 21 ft | 43 kts | 139° |
| 2026-04-29 11:22 | 42.39981 | 18.72904 | 21 ft | 41 kts | 139° |
| 2026-04-29 11:22 | 42.39771 | 18.73153 | 22 ft | 35 kts | 139° |
| 2026-04-29 11:22 | 42.39678 | 18.73256 | 22 ft | 9 kts | 157° |
| 2026-04-29 11:22 | 42.39624 | 18.73281 | 22 ft | 7 kts | 124° |
| 2026-04-29 11:23 | 42.39639 | 18.73301 | 21 ft | 2 kts | 353° |
| 2026-04-29 11:23 | 42.39667 | 18.73275 | 21 ft | 6 kts | 321° |
| 2026-04-29 11:23 | 42.39742 | 18.73187 | 20 ft | 39 kts | 319° |
| 2026-04-29 11:23 | 42.40129 | 18.72729 | 21 ft | 107 kts | 319° |
| 2026-04-29 11:24 | 42.40837 | 18.71892 | 23 ft | 160 kts | 319° |
| 2026-04-29 11:24 | 42.41688 | 18.70878 | 645 ft | 155 kts | 317° |
| 2026-04-29 11:24 | 42.42278 | 18.69744 | 1280 ft | 150 kts | 271° |
| 2026-04-29 11:24 | 42.41976 | 18.68412 | 1718 ft | 167 kts | 237° |
| 2026-04-29 11:25 | 42.41231 | 18.67077 | 2217 ft | 189 kts | 221° |
| 2026-04-29 11:25 | 42.40163 | 18.65875 | 2721 ft | 211 kts | 214° |
| 2026-04-29 11:25 | 42.38930 | 18.64648 | 3403 ft | 227 kts | 214° |
| 2026-04-29 11:25 | 42.37657 | 18.63387 | 3989 ft | 228 kts | 216° |
| 2026-04-29 11:26 | 42.35136 | 18.60812 | 5111 ft | 230 kts | 218° |
| 2026-04-29 11:26 | 42.33859 | 18.59485 | 5575 ft | 233 kts | 216° |
| 2026-04-29 11:26 | 42.32375 | 18.58605 | 6071 ft | 236 kts | 191° |
| 2026-04-29 11:27 | 42.30721 | 18.58634 | 6570 ft | 241 kts | 175° |
| 2026-04-29 11:27 | 42.29045 | 18.58920 | 7018 ft | 244 kts | 175° |
| 2026-04-29 11:27 | 42.27356 | 18.59223 | 7482 ft | 246 kts | 170° |
| 2026-04-29 11:27 | 42.25781 | 18.60165 | 7898 ft | 254 kts | 143° |
| 2026-04-29 11:28 | 42.24686 | 18.62000 | 8288 ft | 260 kts | 115° |
| 2026-04-29 11:28 | 42.24336 | 18.64418 | 8579 ft | 270 kts | 83° |
| 2026-04-29 11:28 | 42.24823 | 18.66863 | 9091 ft | 272 kts | 69° |
| 2026-04-29 11:28 | 42.25456 | 18.69278 | 9672 ft | 274 kts | 69° |
| 2026-04-29 11:29 | 42.26085 | 18.71715 | 10255 ft | 276 kts | 69° |
| 2026-04-29 11:29 | 42.26714 | 18.74172 | 10779 ft | 278 kts | 69° |
| 2026-04-29 11:29 | 42.27413 | 18.76617 | 11272 ft | 280 kts | 59° |
| 2026-04-29 11:29 | 42.28569 | 18.78711 | 11775 ft | 279 kts | 40° |
| 2026-04-29 11:30 | 42.30156 | 18.80237 | 12076 ft | 287 kts | 22° |
| 2026-04-29 11:30 | 42.32060 | 18.81012 | 12377 ft | 293 kts | 6° |
| 2026-04-29 11:30 | 42.34086 | 18.81486 | 12861 ft | 298 kts | 7° |
| 2026-04-29 11:30 | 42.36131 | 18.81985 | 13445 ft | 300 kts | 7° |
| 2026-04-29 11:31 | 42.38193 | 18.82501 | 14025 ft | 303 kts | 7° |
| 2026-04-29 11:31 | 42.40306 | 18.83030 | 14234 ft | 317 kts | 7° |
| 2026-04-29 11:31 | 42.42516 | 18.83587 | 14347 ft | 330 kts | 7° |
| 2026-04-29 11:31 | 42.44823 | 18.84167 | 14469 ft | 345 kts | 7° |
| 2026-04-29 11:32 | 42.47231 | 18.84769 | 14606 ft | 359 kts | 7° |
| 2026-04-29 11:32 | 42.49737 | 18.85393 | 14748 ft | 371 kts | 7° |
| 2026-04-29 11:32 | 42.52256 | 18.86025 | 15069 ft | 376 kts | 7° |
| 2026-04-29 11:32 | 42.54843 | 18.86678 | 15464 ft | 379 kts | 7° |
| 2026-04-29 11:33 | 42.57448 | 18.87334 | 15879 ft | 382 kts | 7° |
| 2026-04-29 11:33 | 42.60070 | 18.87994 | 16300 ft | 384 kts | 7° |
| 2026-04-29 11:33 | 42.62707 | 18.88656 | 16712 ft | 386 kts | 7° |
| 2026-04-29 11:33 | 42.65357 | 18.89320 | 17104 ft | 389 kts | 6° |
| 2026-04-29 11:34 | 42.68026 | 18.89990 | 17476 ft | 391 kts | 6° |
| 2026-04-29 11:34 | 42.70708 | 18.90666 | 17861 ft | 393 kts | 6° |
| 2026-04-29 11:34 | 42.73366 | 18.91358 | 18183 ft | 397 kts | 9° |
| 2026-04-29 11:34 | 42.75997 | 18.92559 | 18510 ft | 404 kts | 20° |
| 2026-04-29 11:35 | 42.78471 | 18.94459 | 18817 ft | 412 kts | 31° |
| 2026-04-29 11:35 | 42.80660 | 18.97013 | 19109 ft | 420 kts | 43° |
| 2026-04-29 11:35 | 42.82618 | 18.99990 | 19413 ft | 423 kts | 44° |
| 2026-04-29 11:35 | 42.84577 | 19.02992 | 19710 ft | 425 kts | 44° |
| 2026-04-29 11:36 | 42.86546 | 19.06009 | 19995 ft | 427 kts | 44° |
| 2026-04-29 11:36 | 42.88499 | 19.09000 | 20296 ft | 429 kts | 44° |
| 2026-04-29 11:36 | 42.90489 | 19.12045 | 20569 ft | 431 kts | 44° |
| 2026-04-29 11:36 | 42.92487 | 19.15106 | 20908 ft | 432 kts | 44° |
| 2026-04-29 11:37 | 42.94490 | 19.18177 | 21213 ft | 434 kts | 44° |
| 2026-04-29 11:37 | 42.96500 | 19.21260 | 21507 ft | 436 kts | 44° |
| 2026-04-29 11:37 | 42.98517 | 19.24364 | 21850 ft | 438 kts | 44° |
| 2026-04-29 11:37 | 43.00542 | 19.27484 | 22167 ft | 440 kts | 44° |
| 2026-04-29 11:38 | 43.02577 | 19.30621 | 22463 ft | 442 kts | 44° |
| 2026-04-29 11:38 | 43.04595 | 19.33736 | 22750 ft | 445 kts | 44° |
| 2026-04-29 11:38 | 43.06648 | 19.36909 | 23066 ft | 446 kts | 44° |
| 2026-04-29 11:38 | 43.08706 | 19.40093 | 23315 ft | 448 kts | 44° |
| 2026-04-29 11:39 | 43.10773 | 19.43295 | 23606 ft | 450 kts | 44° |
| 2026-04-29 11:39 | 43.12849 | 19.46516 | 23871 ft | 452 kts | 44° |
| 2026-04-29 11:39 | 43.14932 | 19.49752 | 24122 ft | 454 kts | 44° |
| 2026-04-29 11:39 | 43.17023 | 19.53001 | 24363 ft | 455 kts | 44° |
| 2026-04-29 11:40 | 43.19122 | 19.56260 | 24621 ft | 457 kts | 44° |
| 2026-04-29 11:40 | 43.21201 | 19.59494 | 24856 ft | 459 kts | 44° |
| 2026-04-29 11:40 | 43.23271 | 19.62829 | 25094 ft | 463 kts | 49° |
| 2026-04-29 11:40 | 43.25039 | 19.66554 | 25318 ft | 470 kts | 58° |
| 2026-04-29 11:41 | 43.26564 | 19.70529 | 25529 ft | 471 kts | 58° |
| 2026-04-29 11:41 | 43.28093 | 19.74516 | 25747 ft | 473 kts | 58° |
| 2026-04-29 11:41 | 43.29634 | 19.78516 | 25976 ft | 475 kts | 58° |
| 2026-04-29 11:41 | 43.31183 | 19.82530 | 26184 ft | 477 kts | 58° |
| 2026-04-29 11:42 | 43.32735 | 19.86560 | 26441 ft | 478 kts | 58° |
| 2026-04-29 11:42 | 43.34268 | 19.90553 | 26650 ft | 480 kts | 58° |
| 2026-04-29 11:42 | 43.35826 | 19.94613 | 26866 ft | 481 kts | 58° |
| 2026-04-29 11:42 | 43.37387 | 19.98689 | 27083 ft | 483 kts | 58° |
| 2026-04-29 11:43 | 43.38951 | 20.02778 | 27283 ft | 484 kts | 58° |
| 2026-04-29 11:43 | 43.40518 | 20.06877 | 27490 ft | 486 kts | 58° |
| 2026-04-29 11:43 | 43.42093 | 20.11001 | 27663 ft | 488 kts | 58° |
| 2026-04-29 11:43 | 43.43673 | 20.15143 | 27837 ft | 490 kts | 58° |
| 2026-04-29 11:44 | 43.45254 | 20.19308 | 27995 ft | 492 kts | 58° |
| 2026-04-29 11:44 | 43.46815 | 20.23429 | 28171 ft | 492 kts | 58° |
| 2026-04-29 11:44 | 43.48399 | 20.27616 | 28353 ft | 494 kts | 58° |
| 2026-04-29 11:44 | 43.49984 | 20.31811 | 28564 ft | 493 kts | 58° |
| 2026-04-29 11:45 | 43.51564 | 20.36002 | 28779 ft | 493 kts | 58° |
| 2026-04-29 11:45 | 43.53142 | 20.40193 | 29017 ft | 493 kts | 58° |
| 2026-04-29 11:45 | 43.54720 | 20.44388 | 29186 ft | 493 kts | 58° |
| 2026-04-29 11:45 | 43.56301 | 20.48590 | 29354 ft | 494 kts | 58° |
| 2026-04-29 11:46 | 43.57878 | 20.52795 | 29599 ft | 493 kts | 58° |
| 2026-04-29 11:46 | 43.59446 | 20.56987 | 29857 ft | 493 kts | 58° |
| 2026-04-29 11:46 | 43.60998 | 20.61143 | 30078 ft | 493 kts | 58° |
| 2026-04-29 11:46 | 43.62564 | 20.65338 | 30231 ft | 493 kts | 58° |
| 2026-04-29 11:47 | 43.64135 | 20.69544 | 30422 ft | 493 kts | 58° |
| 2026-04-29 11:47 | 43.65704 | 20.73749 | 30610 ft | 492 kts | 58° |
| 2026-04-29 11:47 | 43.67271 | 20.77957 | 30782 ft | 493 kts | 57° |
| 2026-04-29 11:47 | 43.68841 | 20.82171 | 30936 ft | 493 kts | 57° |
| 2026-04-29 11:48 | 43.70411 | 20.86388 | 31107 ft | 493 kts | 57° |
| 2026-04-29 11:48 | 43.71978 | 20.90613 | 31301 ft | 493 kts | 58° |
| 2026-04-29 11:48 | 43.73532 | 20.94824 | 31502 ft | 493 kts | 58° |
| 2026-04-29 11:48 | 43.75088 | 20.99048 | 31703 ft | 492 kts | 58° |
| 2026-04-29 11:49 | 43.76617 | 21.03197 | 31902 ft | 491 kts | 57° |
| 2026-04-29 11:49 | 43.78166 | 21.07407 | 32079 ft | 491 kts | 58° |
| 2026-04-29 11:49 | 43.79713 | 21.11618 | 32270 ft | 491 kts | 57° |
| 2026-04-29 11:49 | 43.81263 | 21.15837 | 32408 ft | 492 kts | 57° |
| 2026-04-29 11:50 | 43.82815 | 21.20061 | 32564 ft | 492 kts | 57° |
| 2026-04-29 11:50 | 43.84365 | 21.24288 | 32762 ft | 492 kts | 57° |
| 2026-04-29 11:50 | 43.85908 | 21.28518 | 32950 ft | 492 kts | 57° |
| 2026-04-29 11:50 | 43.87447 | 21.32745 | 33112 ft | 491 kts | 57° |
| 2026-04-29 11:51 | 43.90482 | 21.41117 | 33148 ft | 488 kts | 57° |
| 2026-04-29 11:51 | 43.93526 | 21.49525 | 33144 ft | 488 kts | 57° |
| 2026-04-29 11:52 | 43.96576 | 21.57939 | 33152 ft | 488 kts | 57° |
| 2026-04-29 11:52 | 43.99619 | 21.66360 | 33151 ft | 488 kts | 57° |
| 2026-04-29 11:53 | 44.02634 | 21.74750 | 33156 ft | 489 kts | 57° |
| 2026-04-29 11:53 | 44.05668 | 21.83208 | 33180 ft | 489 kts | 57° |
| 2026-04-29 11:54 | 44.08698 | 21.91686 | 33167 ft | 490 kts | 57° |
| 2026-04-29 11:54 | 44.11718 | 22.00179 | 33159 ft | 490 kts | 57° |
| 2026-04-29 11:55 | 44.14737 | 22.08684 | 33147 ft | 490 kts | 57° |
| 2026-04-29 11:55 | 44.17734 | 22.17139 | 33180 ft | 491 kts | 57° |
| 2026-04-29 11:56 | 44.20750 | 22.25699 | 33165 ft | 492 kts | 57° |
| 2026-04-29 11:56 | 44.23763 | 22.34281 | 33155 ft | 493 kts | 57° |
| 2026-04-29 11:57 | 44.26776 | 22.42876 | 33149 ft | 493 kts | 57° |
| 2026-04-29 11:57 | 44.29775 | 22.51416 | 33144 ft | 492 kts | 55° |
| 2026-04-29 11:58 | 44.33604 | 22.59112 | 33150 ft | 475 kts | 39° |
| 2026-04-29 11:58 | 44.38123 | 22.65805 | 33138 ft | 474 kts | 38° |
| 2026-04-29 11:59 | 44.42635 | 22.72538 | 33138 ft | 475 kts | 39° |
| 2026-04-29 11:59 | 44.47108 | 22.79254 | 33137 ft | 475 kts | 39° |
| 2026-04-29 12:00 | 44.51613 | 22.86022 | 33131 ft | 475 kts | 39° |
| 2026-04-29 12:00 | 44.56125 | 22.92798 | 33136 ft | 475 kts | 39° |
| 2026-04-29 12:01 | 44.60627 | 22.99591 | 33173 ft | 475 kts | 39° |
| 2026-04-29 12:01 | 44.65096 | 23.06344 | 33161 ft | 476 kts | 39° |
| 2026-04-29 12:02 | 44.69599 | 23.13160 | 33150 ft | 476 kts | 39° |
| 2026-04-29 12:02 | 44.74097 | 23.19986 | 33141 ft | 476 kts | 39° |
| 2026-04-29 12:03 | 44.78588 | 23.26831 | 33165 ft | 476 kts | 38° |
| 2026-04-29 12:03 | 44.83055 | 23.33646 | 33147 ft | 477 kts | 38° |
| 2026-04-29 12:04 | 44.87555 | 23.40524 | 33135 ft | 477 kts | 38° |
| 2026-04-29 12:04 | 44.92044 | 23.47413 | 33165 ft | 477 kts | 38° |
| 2026-04-29 12:05 | 44.96539 | 23.54329 | 33141 ft | 478 kts | 38° |
| 2026-04-29 12:05 | 45.01040 | 23.61265 | 33122 ft | 479 kts | 38° |
| 2026-04-29 12:06 | 45.05517 | 23.68168 | 33116 ft | 480 kts | 38° |
| 2026-04-29 12:06 | 45.10017 | 23.75142 | 33142 ft | 480 kts | 38° |
| 2026-04-29 12:07 | 45.14515 | 23.82132 | 33131 ft | 480 kts | 38° |
| 2026-04-29 12:07 | 45.19004 | 23.89127 | 33114 ft | 480 kts | 38° |
| 2026-04-29 12:08 | 45.23468 | 23.96091 | 33157 ft | 480 kts | 38° |
| 2026-04-29 12:08 | 45.27948 | 24.03104 | 33140 ft | 479 kts | 39° |
| 2026-04-29 12:09 | 45.32414 | 24.10113 | 33131 ft | 478 kts | 38° |
| 2026-04-29 12:09 | 45.36880 | 24.17126 | 33117 ft | 478 kts | 38° |
| 2026-04-29 12:10 | 45.41306 | 24.24106 | 33140 ft | 478 kts | 39° |
| 2026-04-29 12:10 | 45.45741 | 24.31135 | 33130 ft | 477 kts | 39° |
| 2026-04-29 12:11 | 45.50180 | 24.38173 | 33126 ft | 477 kts | 39° |
| 2026-04-29 12:11 | 45.54613 | 24.45210 | 33178 ft | 476 kts | 40° |
| 2026-04-29 12:12 | 45.58981 | 24.52176 | 33102 ft | 473 kts | 40° |
| 2026-04-29 12:12 | 45.63368 | 24.59178 | 33100 ft | 473 kts | 40° |
| 2026-04-29 12:13 | 45.67756 | 24.66197 | 33092 ft | 473 kts | 40° |
| 2026-04-29 12:13 | 45.72139 | 24.73212 | 33127 ft | 473 kts | 39° |
| 2026-04-29 12:14 | 45.76484 | 24.80198 | 33124 ft | 473 kts | 39° |
| 2026-04-29 12:14 | 45.80845 | 24.87240 | 33106 ft | 472 kts | 39° |
| 2026-04-29 12:15 | 45.85198 | 24.94289 | 33111 ft | 472 kts | 40° |
| 2026-04-29 12:15 | 45.89552 | 25.01361 | 33079 ft | 473 kts | 39° |
| 2026-04-29 12:16 | 45.93888 | 25.08407 | 33064 ft | 474 kts | 40° |
| 2026-04-29 12:16 | 45.98251 | 25.15516 | 33061 ft | 475 kts | 39° |
| 2026-04-29 12:17 | 46.02623 | 25.22656 | 33062 ft | 476 kts | 39° |
| 2026-04-29 12:17 | 46.06993 | 25.29816 | 33063 ft | 476 kts | 40° |
| 2026-04-29 12:18 | 46.11331 | 25.36945 | 33067 ft | 476 kts | 40° |
| 2026-04-29 12:18 | 46.15696 | 25.44134 | 33070 ft | 477 kts | 40° |
| 2026-04-29 12:19 | 46.20068 | 25.51342 | 33092 ft | 478 kts | 40° |
| 2026-04-29 12:19 | 46.24441 | 25.58577 | 33088 ft | 478 kts | 40° |
| 2026-04-29 12:20 | 46.28787 | 25.65792 | 33079 ft | 479 kts | 40° |
| 2026-04-29 12:20 | 46.33153 | 25.73076 | 33115 ft | 480 kts | 40° |
| 2026-04-29 12:21 | 46.37519 | 25.80379 | 33121 ft | 480 kts | 41° |
| 2026-04-29 12:21 | 46.41890 | 25.87693 | 33120 ft | 480 kts | 41° |
| 2026-04-29 12:22 | 46.46263 | 25.95008 | 33139 ft | 480 kts | 40° |
| 2026-04-29 12:22 | 46.50600 | 26.02289 | 33194 ft | 480 kts | 41° |
| 2026-04-29 12:23 | 46.54942 | 26.09622 | 33188 ft | 479 kts | 41° |
| 2026-04-29 12:23 | 46.59278 | 26.16969 | 33202 ft | 479 kts | 41° |
| 2026-04-29 12:24 | 46.63606 | 26.24316 | 33200 ft | 478 kts | 41° |
| 2026-04-29 12:24 | 46.67905 | 26.31617 | 33233 ft | 478 kts | 41° |
| 2026-04-29 12:25 | 46.72232 | 26.38982 | 33214 ft | 479 kts | 41° |
| 2026-04-29 12:26 | 46.78706 | 26.50063 | 33194 ft | 478 kts | 41° |
| 2026-04-29 12:26 | 46.83015 | 26.57463 | 33229 ft | 479 kts | 41° |
| 2026-04-29 12:27 | 46.87307 | 26.64841 | 33209 ft | 480 kts | 42° |
| 2026-04-29 12:27 | 46.91625 | 26.72295 | 33197 ft | 481 kts | 42° |
| 2026-04-29 12:28 | 46.95947 | 26.79768 | 33195 ft | 481 kts | 42° |
| 2026-04-29 12:28 | 47.00262 | 26.87267 | 33235 ft | 481 kts | 43° |
| 2026-04-29 12:29 | 47.04575 | 26.94771 | 33224 ft | 481 kts | 43° |
| 2026-04-29 12:29 | 47.08850 | 27.02228 | 33218 ft | 481 kts | 43° |
| 2026-04-29 12:30 | 47.13152 | 27.09755 | 33257 ft | 481 kts | 43° |
| 2026-04-29 12:30 | 47.17449 | 27.17299 | 33236 ft | 481 kts | 43° |
| 2026-04-29 12:31 | 47.21726 | 27.24836 | 33230 ft | 481 kts | 43° |
| 2026-04-29 12:31 | 47.26018 | 27.32402 | 33228 ft | 481 kts | 43° |
| 2026-04-29 12:32 | 47.30307 | 27.39969 | 33262 ft | 482 kts | 44° |
| 2026-04-29 12:32 | 47.34596 | 27.47564 | 33240 ft | 482 kts | 44° |
| 2026-04-29 12:33 | 47.38841 | 27.55140 | 33233 ft | 482 kts | 44° |
| 2026-04-29 12:33 | 47.43182 | 27.62670 | 33223 ft | 480 kts | 41° |
| 2026-04-29 12:34 | 47.47771 | 27.69793 | 33244 ft | 478 kts | 39° |
| 2026-04-29 12:34 | 47.52389 | 27.76764 | 33228 ft | 478 kts | 39° |
| 2026-04-29 12:35 | 47.56971 | 27.83893 | 33213 ft | 479 kts | 40° |
| 2026-04-29 12:35 | 47.61515 | 27.91121 | 33210 ft | 480 kts | 40° |
| 2026-04-29 12:36 | 47.66060 | 27.98369 | 33210 ft | 480 kts | 40° |
| 2026-04-29 12:36 | 47.70618 | 28.05608 | 33211 ft | 480 kts | 40° |
| 2026-04-29 12:37 | 47.75151 | 28.12801 | 33214 ft | 480 kts | 40° |
| 2026-04-29 12:37 | 47.79704 | 28.20056 | 33253 ft | 480 kts | 41° |
| 2026-04-29 12:38 | 47.84252 | 28.27342 | 33237 ft | 480 kts | 41° |
| 2026-04-29 12:38 | 47.88794 | 28.34647 | 33227 ft | 480 kts | 41° |
| 2026-04-29 12:39 | 47.93338 | 28.41955 | 33220 ft | 481 kts | 41° |
| 2026-04-29 12:39 | 47.97845 | 28.49235 | 33236 ft | 481 kts | 41° |
| 2026-04-29 12:40 | 48.02380 | 28.56574 | 33227 ft | 481 kts | 41° |
| 2026-04-29 12:40 | 48.06910 | 28.63916 | 33227 ft | 481 kts | 41° |
| 2026-04-29 12:41 | 48.11434 | 28.71297 | 33264 ft | 481 kts | 42° |
| 2026-04-29 12:41 | 48.16292 | 28.78051 | 33242 ft | 475 kts | 35° |
| 2026-04-29 12:42 | 48.21231 | 28.84548 | 33237 ft | 475 kts | 35° |
| 2026-04-29 12:42 | 48.26191 | 28.91113 | 33227 ft | 476 kts | 35° |
| 2026-04-29 12:43 | 48.31142 | 28.97688 | 33260 ft | 476 kts | 36° |
| 2026-04-29 12:43 | 48.36098 | 29.04277 | 33255 ft | 476 kts | 36° |
| 2026-04-29 12:44 | 48.41014 | 29.10839 | 33244 ft | 476 kts | 36° |
| 2026-04-29 12:44 | 48.45959 | 29.17465 | 33237 ft | 476 kts | 36° |
| 2026-04-29 12:45 | 48.50903 | 29.24106 | 33255 ft | 476 kts | 36° |
| 2026-04-29 12:45 | 48.55852 | 29.30756 | 33240 ft | 476 kts | 36° |
| 2026-04-29 12:46 | 48.60761 | 29.37382 | 33235 ft | 477 kts | 36° |
| 2026-04-29 12:46 | 48.65702 | 29.44079 | 33258 ft | 477 kts | 37° |
| 2026-04-29 12:47 | 48.70646 | 29.50779 | 33238 ft | 477 kts | 37° |
| 2026-04-29 12:47 | 48.75583 | 29.57480 | 33238 ft | 477 kts | 37° |
| 2026-04-29 12:48 | 48.80518 | 29.64216 | 33239 ft | 477 kts | 37° |
| 2026-04-29 12:48 | 48.85416 | 29.70919 | 33245 ft | 476 kts | 37° |
| 2026-04-29 12:48 | 48.87867 | 29.74278 | 32613 ft | 474 kts | 37° |
| 2026-04-29 12:49 | 48.90322 | 29.77642 | 31800 ft | 476 kts | 37° |
| 2026-04-29 12:49 | 48.92786 | 29.81020 | 31004 ft | 478 kts | 36° |
| 2026-04-29 12:49 | 48.95258 | 29.84417 | 30163 ft | 480 kts | 36° |
| 2026-04-29 12:49 | 48.97740 | 29.87835 | 29233 ft | 482 kts | 36° |
| 2026-04-29 12:50 | 49.00214 | 29.91252 | 28543 ft | 478 kts | 36° |
| 2026-04-29 12:50 | 49.02665 | 29.94645 | 27974 ft | 474 kts | 36° |
| 2026-04-29 12:50 | 49.05086 | 29.97998 | 27358 ft | 469 kts | 36° |
| 2026-04-29 12:50 | 49.07460 | 30.01287 | 26741 ft | 465 kts | 36° |
| 2026-04-29 12:51 | 49.09845 | 30.04600 | 26131 ft | 462 kts | 36° |
| 2026-04-29 12:51 | 49.12212 | 30.07892 | 25511 ft | 459 kts | 36° |
| 2026-04-29 12:51 | 49.14561 | 30.11163 | 24911 ft | 455 kts | 36° |
| 2026-04-29 12:51 | 49.16895 | 30.14413 | 24327 ft | 452 kts | 35° |
| 2026-04-29 12:52 | 49.19214 | 30.17641 | 23792 ft | 449 kts | 36° |
| 2026-04-29 12:52 | 49.21504 | 30.20836 | 23240 ft | 442 kts | 37° |
| 2026-04-29 12:52 | 49.23755 | 30.23988 | 22661 ft | 435 kts | 37° |
| 2026-04-29 12:52 | 49.25972 | 30.27097 | 22077 ft | 429 kts | 37° |
| 2026-04-29 12:53 | 49.28126 | 30.30126 | 21496 ft | 423 kts | 37° |
| 2026-04-29 12:53 | 49.30270 | 30.33147 | 20912 ft | 417 kts | 38° |
| 2026-04-29 12:53 | 49.32393 | 30.36137 | 20331 ft | 410 kts | 38° |
| 2026-04-29 12:53 | 49.34476 | 30.39071 | 19767 ft | 405 kts | 38° |
| 2026-04-29 12:54 | 49.36534 | 30.41970 | 19234 ft | 399 kts | 38° |
| 2026-04-29 12:54 | 49.38562 | 30.44829 | 18708 ft | 393 kts | 38° |
| 2026-04-29 12:54 | 49.40562 | 30.47652 | 18149 ft | 388 kts | 39° |
| 2026-04-29 12:54 | 49.42536 | 30.50441 | 17561 ft | 383 kts | 39° |
| 2026-04-29 12:55 | 49.44487 | 30.53198 | 16997 ft | 379 kts | 39° |
| 2026-04-29 12:55 | 49.46388 | 30.55892 | 16453 ft | 375 kts | 39° |
| 2026-04-29 12:55 | 49.48293 | 30.58597 | 15911 ft | 371 kts | 40° |
| 2026-04-29 12:55 | 49.50178 | 30.61274 | 15388 ft | 367 kts | 40° |
| 2026-04-29 12:56 | 49.52043 | 30.63922 | 14868 ft | 363 kts | 40° |
| 2026-04-29 12:56 | 49.53890 | 30.66534 | 14380 ft | 359 kts | 39° |
| 2026-04-29 12:56 | 49.55886 | 30.68787 | 13874 ft | 353 kts | 29° |
| 2026-04-29 12:56 | 49.58062 | 30.70474 | 13320 ft | 348 kts | 20° |
| 2026-04-29 12:57 | 49.60331 | 30.71714 | 12754 ft | 345 kts | 17° |
| 2026-04-29 12:57 | 49.62586 | 30.72925 | 12198 ft | 342 kts | 17° |
| 2026-04-29 12:57 | 49.64793 | 30.74118 | 11662 ft | 339 kts | 17° |
| 2026-04-29 12:57 | 49.67006 | 30.75324 | 11249 ft | 333 kts | 17° |
| 2026-04-29 12:58 | 49.69141 | 30.76493 | 11109 ft | 318 kts | 17° |
| 2026-04-29 12:58 | 49.71182 | 30.77612 | 10992 ft | 305 kts | 17° |
| 2026-04-29 12:58 | 49.73139 | 30.78686 | 10847 ft | 292 kts | 17° |
| 2026-04-29 12:58 | 49.75024 | 30.79721 | 10596 ft | 284 kts | 17° |
| 2026-04-29 12:59 | 49.76852 | 30.80722 | 10458 ft | 273 kts | 17° |
| 2026-04-29 12:59 | 49.78602 | 30.81680 | 10325 ft | 261 kts | 17° |
| 2026-04-29 12:59 | 49.80271 | 30.82596 | 10047 ft | 256 kts | 17° |
| 2026-04-29 12:59 | 49.81939 | 30.83507 | 9678 ft | 253 kts | 17° |
| 2026-04-29 13:00 | 49.83595 | 30.84410 | 9286 ft | 251 kts | 17° |
| 2026-04-29 13:00 | 49.85234 | 30.85306 | 8916 ft | 249 kts | 17° |
| 2026-04-29 13:00 | 49.86905 | 30.85904 | 8541 ft | 245 kts | 2° |
| 2026-04-29 13:00 | 49.88597 | 30.86027 | 8157 ft | 243 kts | 0° |
| 2026-04-29 13:01 | 49.90279 | 30.86141 | 7797 ft | 241 kts | 0° |
| 2026-04-29 13:01 | 49.91951 | 30.86262 | 7437 ft | 240 kts | 1° |
| 2026-04-29 13:01 | 49.93612 | 30.86384 | 7095 ft | 238 kts | 1° |
| 2026-04-29 13:01 | 49.95242 | 30.86499 | 6737 ft | 237 kts | 1° |
| 2026-04-29 13:02 | 49.96884 | 30.86615 | 6371 ft | 236 kts | 1° |
| 2026-04-29 13:02 | 49.98521 | 30.86730 | 6008 ft | 235 kts | 0° |
| 2026-04-29 13:02 | 50.00145 | 30.86845 | 5648 ft | 233 kts | 0° |
| 2026-04-29 13:02 | 50.01757 | 30.86960 | 5307 ft | 231 kts | 0° |
| 2026-04-29 13:03 | 50.03359 | 30.87073 | 4968 ft | 230 kts | 1° |
| 2026-04-29 13:03 | 50.04953 | 30.87186 | 4610 ft | 229 kts | 0° |
| 2026-04-29 13:03 | 50.06541 | 30.87342 | 4269 ft | 230 kts | 7° |
| 2026-04-29 13:03 | 50.08113 | 30.87741 | 3963 ft | 228 kts | 6° |
| 2026-04-29 13:04 | 50.09657 | 30.88122 | 3649 ft | 227 kts | 7° |
| 2026-04-29 13:04 | 50.11213 | 30.88502 | 3348 ft | 226 kts | 7° |
| 2026-04-29 13:04 | 50.12765 | 30.88879 | 3041 ft | 224 kts | 7° |
| 2026-04-29 13:04 | 50.14319 | 30.89075 | 2995 ft | 225 kts | 1° |
| 2026-04-29 13:05 | 50.15883 | 30.89177 | 2987 ft | 224 kts | 1° |
| 2026-04-29 13:05 | 50.17426 | 30.89285 | 3014 ft | 214 kts | 0° |
| 2026-04-29 13:05 | 50.18889 | 30.89392 | 2988 ft | 208 kts | 1° |
| 2026-04-29 13:05 | 50.20331 | 30.89496 | 2878 ft | 206 kts | 1° |
| 2026-04-29 13:06 | 50.21744 | 30.89599 | 2625 ft | 206 kts | 1° |
| 2026-04-29 13:06 | 50.23165 | 30.89703 | 2365 ft | 202 kts | 0° |
| 2026-04-29 13:06 | 50.24537 | 30.89804 | 2087 ft | 193 kts | 1° |
| 2026-04-29 13:06 | 50.25823 | 30.89899 | 1835 ft | 177 kts | 1° |
| 2026-04-29 13:07 | 50.26985 | 30.89985 | 1588 ft | 159 kts | 0° |
| 2026-04-29 13:07 | 50.28034 | 30.90062 | 1380 ft | 146 kts | 359° |
| 2026-04-29 13:07 | 50.29039 | 30.90135 | 1170 ft | 144 kts | 360° |
| 2026-04-29 13:07 | 50.30027 | 30.90221 | 969 ft | 141 kts | 359° |
| 2026-04-29 13:08 | 50.31006 | 30.90272 | 779 ft | 142 kts | 359° |
| 2026-04-29 13:08 | 50.31978 | 30.90346 | 582 ft | 141 kts | 0° |
| 2026-04-29 13:08 | 50.32945 | 30.90415 | 424 ft | 133 kts | 2° |
| 2026-04-29 13:08 | 50.33769 | 30.90479 | 419 ft | 96 kts | 1° |
| 2026-04-29 13:09 | 50.34176 | 30.90504 | 419 ft | 24 kts | 356° |
| 2026-04-29 13:09 | 50.34318 | 30.90461 | 412 ft | 16 kts | 341° |
| 2026-04-29 13:09 | 50.34418 | 30.90389 | 411 ft | 16 kts | 331° |
| 2026-04-29 13:09 | 50.34521 | 30.90304 | 413 ft | 17 kts | 333° |
| 2026-04-29 13:10 | 50.34591 | 30.90248 | 411 ft | 17 kts | 334° |
| 2026-04-29 13:10 | 50.34743 | 30.90227 | 411 ft | 16 kts | 2° |
| 2026-04-29 13:10 | 50.34855 | 30.90235 | 413 ft | 16 kts | 2° |
| 2026-04-29 13:10 | 50.34983 | 30.90245 | 412 ft | 23 kts | 2° |
| 2026-04-29 13:11 | 50.35127 | 30.90254 | 409 ft | 14 kts | 359° |
| 2026-04-29 13:11 | 50.35191 | 30.90164 | 415 ft | 13 kts | 279° |
| 2026-04-29 13:11 | 50.35215 | 30.90031 | 413 ft | 12 kts | 294° |
| 2026-04-29 13:11 | 50.35224 | 30.89928 | 412 ft | 7 kts | 273° |
| 2026-04-29 13:12 | 50.35225 | 30.89902 | 415 ft | 0 kts | 273° |
| 2026-04-29 13:12 | 50.35225 | 30.89898 | 415 ft | 1 kts | 273° |
| 2026-04-29 13:12 | 50.35225 | 30.89893 | 415 ft | 0 kts | 273° |